Time;durP1;ratioP1;P1;durP2;ratioP2;P2;SDS_P1;SDS_P2;PMS_P1;PMS_P2;Temp;Humidity;BMP_temperature;BMP_pressure;BME280_temperature;BME280_humidity;BME280_pressure;Samples;Min_cycle;Max_cycle;Signal;HPM_P1;HPM_P2
2023/06/13 00:00:08;;;;;;;;;;;19.10;99.90;;;;;;4976389;28;20033;-81
2023/06/13 00:02:34;;;;;;;;;;;19.00;99.90;;;;;;4979796;28;19928;-81
2023/06/13 00:05:01;;;;;;;;;;;19.00;99.90;;;;;;4976342;28;19958;-80
2023/06/13 00:07:26;;;;;;;;;;;18.90;99.90;;;;;;4976607;28;19986;-81
2023/06/13 00:09:52;;;;;;;;;;;18.90;99.90;;;;;;4994436;28;19925;-82
2023/06/13 00:12:20;;;;;;;;;;;18.80;99.90;;;;;;4994422;28;20378;-82
2023/06/13 00:14:50;;;;;;;;;;;18.80;99.90;;;;;;4969237;28;19990;-81
2023/06/13 00:17:25;;;;;;;;;;;18.80;99.90;;;;;;4978991;28;20008;-80
2023/06/13 00:19:51;;;;;;;;;;;18.70;99.90;;;;;;5000082;28;19921;-80
2023/06/13 00:22:17;;;;;;;;;;;18.70;99.90;;;;;;4977642;28;19967;-81
2023/06/13 00:24:43;;;;;;;;;;;18.60;99.90;;;;;;4979684;28;19925;-80
2023/06/13 00:27:10;;;;;;;;;;;18.60;99.90;;;;;;5013033;28;19928;-81
2023/06/13 00:29:35;;;;;;;;;;;18.50;1.00;;;;;;4979330;28;19918;-81
2023/06/13 00:32:01;;;;;;;;;;;18.50;99.90;;;;;;4979867;28;19961;-81
2023/06/13 00:34:27;;;;;;;;;;;18.40;1.00;;;;;;4995354;28;20011;-81
2023/06/13 00:36:53;;;;;;;;;;;18.40;1.00;;;;;;4996761;28;19940;-81
2023/06/13 00:39:19;;;;;;;;;;;18.30;1.00;;;;;;5012523;28;19958;-81
2023/06/13 00:41:45;;;;;;;;;;;18.30;1.00;;;;;;4963539;28;20337;-81
2023/06/13 00:44:10;;;;;;;;;;;18.20;1.00;;;;;;4995293;28;20007;-81
2023/06/13 00:46:36;;;;;;;;;;;18.20;1.00;;;;;;4996073;28;19937;-81
2023/06/13 00:49:02;;;;;;;;;;;18.10;1.00;;;;;;4996568;28;19921;-81
2023/06/13 00:51:29;;;;;;;;;;;18.10;1.00;;;;;;4979705;28;19934;-81
2023/06/13 00:53:55;;;;;;;;;;;18.00;1.00;;;;;;5012186;28;20096;-81
2023/06/13 00:56:22;;;;;;;;;;;18.00;1.00;;;;;;4980108;28;19918;-81
2023/06/13 00:58:48;;;;;;;;;;;18.00;1.00;;;;;;5011536;28;20394;-81
2023/06/13 01:01:19;;;;;;;;;;;17.90;1.00;;;;;;4979823;28;19926;-81
2023/06/13 01:03:45;;;;;;;;;;;17.90;1.00;;;;;;4976437;28;19932;-81
2023/06/13 01:06:13;;;;;;;;;;;17.80;1.00;;;;;;4956785;28;19918;-81
2023/06/13 01:08:40;;;;;;;;;;;17.80;1.00;;;;;;4966822;28;19995;-81
2023/06/13 01:11:23;;;;;;;;;;;17.70;1.00;;;;;;4979471;28;19921;-81
2023/06/13 01:13:55;;;;;;;;;;;17.60;1.00;;;;;;5002442;28;20218;-80
2023/06/13 01:16:28;;;;;;;;;;;17.60;1.00;;;;;;5004376;28;19953;-81
2023/06/13 01:18:56;;;;;;;;;;;17.50;1.00;;;;;;4993569;28;20031;-80
2023/06/13 01:21:24;;;;;;;;;;;17.50;1.00;;;;;;5008483;28;19924;-80
2023/06/13 01:24:08;;;;;;;;;;;17.50;1.00;;;;;;4978821;28;20384;-81
2023/06/13 01:26:40;;;;;;;;;;;17.50;1.00;;;;;;4979087;28;19936;-81
2023/06/13 01:29:06;;;;;;;;;;;17.40;1.00;;;;;;5011589;28;20401;-81
2023/06/13 01:31:32;;;;;;;;;;;17.40;1.00;;;;;;4978482;28;19917;-81
2023/06/13 01:33:58;;;;;;;;;;;17.30;1.00;;;;;;4993838;28;19917;-81
2023/06/13 01:36:25;;;;;;;;;;;17.30;1.00;;;;;;4994971;28;20072;-81
2023/06/13 01:38:50;;;;;;;;;;;17.30;1.60;;;;;;4994926;28;19924;-81
2023/06/13 01:41:16;;;;;;;;;;;17.20;2.40;;;;;;4978786;28;19917;-81
2023/06/13 01:43:41;;;;;;;;;;;17.20;7.20;;;;;;4995255;28;19928;-81
2023/06/13 01:46:12;;;;;;;;;;;17.20;21.30;;;;;;4994674;28;20393;-81
2023/06/13 01:48:41;;;;;;;;;;;17.10;23.70;;;;;;4994953;28;20017;-81
2023/06/13 01:51:16;;;;;;;;;;;17.10;11.80;;;;;;4978010;28;20043;-81
2023/06/13 01:54:08;;;;;;;;;;;17.10;17.70;;;;;;4978469;28;19928;-81
2023/06/13 01:56:34;;;;;;;;;;;17.10;41.70;;;;;;4975321;28;20291;-81
2023/06/13 01:59:00;;;;;;;;;;;17.00;19.30;;;;;;4994808;28;19928;-81
2023/06/13 02:01:27;;;;;;;;;;;17.00;35.60;;;;;;4978238;28;19921;-81
2023/06/13 02:03:53;;;;;;;;;;;17.00;12.60;;;;;;4993876;28;19932;-81
2023/06/13 02:06:19;;;;;;;;;;;17.00;28.50;;;;;;5010569;28;19953;-82
2023/06/13 02:08:44;;;;;;;;;;;17.00;27.00;;;;;;4994693;28;19960;-81
2023/06/13 02:11:10;;;;;;;;;;;16.90;26.80;;;;;;4977226;28;20014;-81
2023/06/13 02:13:36;;;;;;;;;;;16.90;23.50;;;;;;4961852;28;19921;-81
2023/06/13 02:16:01;;;;;;;;;;;16.90;14.90;;;;;;4992894;28;19924;-81
2023/06/13 02:18:27;;;;;;;;;;;16.80;24.60;;;;;;4994349;28;19940;-82
2023/06/13 02:20:54;;;;;;;;;;;16.80;22.70;;;;;;4993835;28;19964;-81
2023/06/13 02:23:20;;;;;;;;;;;16.70;3.20;;;;;;4977567;28;19925;-81
2023/06/13 02:25:49;;;;;;;;;;;16.70;20.40;;;;;;4993676;28;19979;-82
2023/06/13 02:28:15;;;;;;;;;;;16.70;22.00;;;;;;4993671;28;19928;-81
2023/06/13 02:30:40;;;;;;;;;;;16.60;3.30;;;;;;4994239;28;19917;-82
2023/06/13 02:33:08;;;;;;;;;;;16.60;17.20;;;;;;4994078;28;20490;-82
2023/06/13 02:35:34;;;;;;;;;;;16.60;32.20;;;;;;4962453;28;19995;-81
2023/06/13 02:37:59;;;;;;;;;;;16.50;17.60;;;;;;4993668;28;20500;-82
2023/06/13 02:40:25;;;;;;;;;;;16.50;34.60;;;;;;5011277;28;19948;-82
2023/06/13 02:42:54;;;;;;;;;;;16.50;28.20;;;;;;4977463;28;19944;-82
2023/06/13 02:45:20;;;;;;;;;;;16.40;28.40;;;;;;4993567;28;20013;-81
2023/06/13 02:47:46;;;;;;;;;;;16.40;33.60;;;;;;4993752;28;20012;-81
2023/06/13 02:50:11;;;;;;;;;;;16.40;68.50;;;;;;4993394;28;20068;-82
2023/06/13 02:52:37;;;;;;;;;;;16.30;51.30;;;;;;4958798;28;19968;-82
2023/06/13 02:55:04;;;;;;;;;;;16.30;42.00;;;;;;4974298;28;19917;-82
2023/06/13 02:57:30;;;;;;;;;;;16.20;69.80;;;;;;4986448;28;19980;-82
2023/06/13 02:59:56;;;;;;;;;;;16.20;72.70;;;;;;4977050;28;19964;-82
2023/06/13 03:02:25;;;;;;;;;;;16.20;64.50;;;;;;4993176;28;19917;-81
2023/06/13 03:04:55;;;;;;;;;;;16.20;77.90;;;;;;4980943;28;19933;-81
2023/06/13 03:07:20;;;;;;;;;;;16.20;91.30;;;;;;4991803;28;20382;-82
2023/06/13 03:09:46;;;;;;;;;;;16.20;91.90;;;;;;4984180;28;19976;-82
2023/06/13 03:12:12;;;;;;;;;;;16.10;77.90;;;;;;4973321;28;19925;-81
2023/06/13 03:14:38;;;;;;;;;;;16.10;89.20;;;;;;4975377;28;19928;-82
2023/06/13 03:17:04;;;;;;;;;;;16.10;59.60;;;;;;4959824;28;19968;-82
2023/06/13 03:19:29;;;;;;;;;;;16.10;59.70;;;;;;4992502;28;19956;-82
2023/06/13 03:21:56;;;;;;;;;;;16.10;61.30;;;;;;4993337;28;19961;-82
2023/06/13 03:24:22;;;;;;;;;;;16.10;77.40;;;;;;4992999;28;19947;-81
2023/06/13 03:26:47;;;;;;;;;;;16.10;82.80;;;;;;5007230;28;20320;-82
2023/06/13 03:29:13;;;;;;;;;;;16.10;54.60;;;;;;4991955;28;19925;-82
2023/06/13 03:31:38;;;;;;;;;;;16.10;90.30;;;;;;4974082;28;19917;-81
2023/06/13 03:34:07;;;;;;;;;;;16.00;70.10;;;;;;4977183;28;19925;-81
2023/06/13 03:36:37;;;;;;;;;;;16.00;70.60;;;;;;4992920;28;19956;-81
2023/06/13 03:39:02;;;;;;;;;;;16.00;66.20;;;;;;4977637;28;19928;-81
2023/06/13 03:41:28;;;;;;;;;;;16.00;78.80;;;;;;4992535;28;19921;-81
2023/06/13 03:43:54;;;;;;;;;;;16.00;71.60;;;;;;4989737;28;19965;-81
2023/06/13 03:46:20;;;;;;;;;;;16.00;92.00;;;;;;4993401;28;20343;-81
2023/06/13 03:48:46;;;;;;;;;;;16.00;87.50;;;;;;5008943;28;19925;-81
2023/06/13 03:51:11;;;;;;;;;;;16.00;70.80;;;;;;4977043;28;19918;-81
2023/06/13 03:53:38;;;;;;;;;;;16.00;67.10;;;;;;4977726;28;19921;-81
2023/06/13 03:56:06;;;;;;;;;;;16.00;81.20;;;;;;4979689;28;20378;-81
2023/06/13 03:58:32;;;;;;;;;;;16.00;65.80;;;;;;4981731;28;19938;-81
2023/06/13 04:00:58;;;;;;;;;;;16.00;64.30;;;;;;5029104;28;20012;-79
2023/06/13 04:03:24;;;;;;;;;;;15.90;74.20;;;;;;4978140;28;20035;-80
2023/06/13 04:05:49;;;;;;;;;;;15.90;66.10;;;;;;4996210;28;19995;-79
2023/06/13 04:08:15;;;;;;;;;;;15.90;67.80;;;;;;4996113;28;19921;-80
2023/06/13 04:10:40;;;;;;;;;;;15.90;68.40;;;;;;4995622;28;19943;-80
2023/06/13 04:13:08;;;;;;;;;;;16.00;54.70;;;;;;4978022;28;19921;-80
2023/06/13 04:15:33;;;;;;;;;;;16.00;60.00;;;;;;4997273;28;20285;-80
2023/06/13 04:17:59;;;;;;;;;;;16.00;54.30;;;;;;4979665;28;19921;-80
2023/06/13 04:20:27;;;;;;;;;;;16.00;48.00;;;;;;4995647;28;19936;-79
2023/06/13 04:22:54;;;;;;;;;;;16.00;42.90;;;;;;4989855;28;20009;-80
2023/06/13 04:25:19;;;;;;;;;;;16.10;50.40;;;;;;4977602;28;19924;-80
2023/06/13 04:27:45;;;;;;;;;;;16.10;61.90;;;;;;4993724;28;19925;-80
2023/06/13 04:30:11;;;;;;;;;;;16.10;65.90;;;;;;4995166;28;19921;-80
2023/06/13 04:32:37;;;;;;;;;;;16.00;61.40;;;;;;4976645;28;20337;-80
2023/06/13 04:35:03;;;;;;;;;;;16.00;60.20;;;;;;4994274;28;19921;-80
2023/06/13 04:37:30;;;;;;;;;;;16.10;37.70;;;;;;4996839;28;20291;-80
2023/06/13 04:39:56;;;;;;;;;;;16.10;44.80;;;;;;4982040;28;19921;-80
2023/06/13 04:42:32;;;;;;;;;;;16.10;31.80;;;;;;4982854;28;19944;-79
2023/06/13 04:44:58;;;;;;;;;;;16.20;29.50;;;;;;4997455;28;19977;-80
2023/06/13 04:47:24;;;;;;;;;;;16.20;27.30;;;;;;4996458;28;19921;-80
2023/06/13 04:49:58;;;;;;;;;;;16.20;17.50;;;;;;4995490;28;20290;-80
2023/06/13 04:52:25;;;;;;;;;;;16.30;8.90;;;;;;4993843;28;20108;-80
2023/06/13 04:54:52;;;;;;;;;;;16.30;3.80;;;;;;4993614;28;19928;-80
2023/06/13 04:57:18;;;;;;;;;;;16.30;1.00;;;;;;4976318;28;20389;-80
2023/06/13 04:59:43;;;;;;;;;;;16.40;1.00;;;;;;4994178;28;19921;-80
2023/06/13 05:02:09;;;;;;;;;;;16.40;1.00;;;;;;4989339;28;20429;-80
2023/06/13 05:04:36;;;;;;;;;;;16.40;1.00;;;;;;4976614;28;19995;-81
2023/06/13 05:07:04;;;;;;;;;;;16.50;1.00;;;;;;4995193;28;20390;-83
2023/06/13 05:09:30;;;;;;;;;;;16.50;1.00;;;;;;4994730;28;19921;-83
2023/06/13 05:11:56;;;;;;;;;;;16.60;1.00;;;;;;4980128;28;19917;-84
2023/06/13 05:14:21;;;;;;;;;;;16.70;1.00;;;;;;4989413;28;20008;-83
2023/06/13 05:16:47;;;;;;;;;;;16.70;1.00;;;;;;4980141;28;20003;-85
2023/06/13 05:19:13;;;;;;;;;;;16.80;1.00;;;;;;4993908;28;19918;-85
2023/06/13 05:21:38;;;;;;;;;;;16.80;1.00;;;;;;4978565;28;19922;-84
2023/06/13 05:24:04;;;;;;;;;;;16.90;1.00;;;;;;4987232;28;19928;-85
2023/06/13 05:26:30;;;;;;;;;;;16.90;1.00;;;;;;4960213;28;19924;-85
2023/06/13 05:28:56;;;;;;;;;;;17.00;1.00;;;;;;4974810;28;19921;-85
2023/06/13 05:31:22;;;;;;;;;;;17.10;1.00;;;;;;4994857;28;20445;-85
2023/06/13 05:33:48;;;;;;;;;;;17.20;1.00;;;;;;4961456;28;20036;-83
2023/06/13 05:36:13;;;;;;;;;;;17.20;99.90;;;;;;5004516;28;20247;-85
2023/06/13 05:38:39;;;;;;;;;;;17.30;99.90;;;;;;4977557;28;19921;-83
2023/06/13 05:41:05;;;;;;;;;;;17.40;99.90;;;;;;4994205;28;20282;-84
2023/06/13 05:43:30;;;;;;;;;;;17.50;99.90;;;;;;4977156;28;19931;-84
2023/06/13 05:45:56;;;;;;;;;;;17.60;99.90;;;;;;4963318;28;19917;-84
2023/06/13 05:48:22;;;;;;;;;;;17.70;99.90;;;;;;4993820;28;19921;-81
2023/06/13 05:50:47;;;;;;;;;;;17.80;99.90;;;;;;4961647;28;20020;-77
2023/06/13 05:53:13;;;;;;;;;;;17.90;99.90;;;;;;4991436;28;19917;-79
2023/06/13 05:55:39;;;;;;;;;;;18.00;99.90;;;;;;4994450;28;20288;-79
2023/06/13 05:58:05;;;;;;;;;;;18.10;99.90;;;;;;4989750;28;19917;-80
2023/06/13 06:00:30;;;;;;;;;;;18.20;99.90;;;;;;4991227;28;19928;-79
2023/06/13 06:02:56;;;;;;;;;;;18.20;99.90;;;;;;4992750;28;20373;-80
2023/06/13 06:05:21;;;;;;;;;;;18.40;99.90;;;;;;4992983;28;19922;-79
2023/06/13 06:07:47;;;;;;;;;;;18.60;99.90;;;;;;4990698;28;19929;-80
2023/06/13 06:10:13;;;;;;;;;;;18.70;99.90;;;;;;4984868;28;19953;-79
2023/06/13 06:12:39;;;;;;;;;;;18.90;99.90;;;;;;4993548;28;20352;-80
2023/06/13 06:15:05;;;;;;;;;;;19.10;99.90;;;;;;4961433;28;20004;-80
2023/06/13 06:17:30;;;;;;;;;;;19.20;99.90;;;;;;4976513;28;19964;-79
2023/06/13 06:19:56;;;;;;;;;;;19.30;99.90;;;;;;4989253;28;20359;-80
2023/06/13 06:22:21;;;;;;;;;;;19.30;99.90;;;;;;4968905;28;19989;-79
2023/06/13 06:24:47;;;;;;;;;;;19.30;99.90;;;;;;4971768;28;19929;-80
2023/06/13 06:27:13;;;;;;;;;;;19.30;99.90;;;;;;4989921;28;19925;-80
2023/06/13 06:29:39;;;;;;;;;;;19.30;99.90;;;;;;4974411;28;19921;-79
2023/06/13 06:32:06;;;;;;;;;;;19.40;99.90;;;;;;4982485;28;20059;-78
2023/06/13 06:34:32;;;;;;;;;;;19.40;99.90;;;;;;4989548;28;19921;-78
2023/06/13 06:36:58;;;;;;;;;;;19.50;99.90;;;;;;4973303;28;19929;-78
2023/06/13 06:39:23;;;;;;;;;;;19.50;99.90;;;;;;4973243;28;19925;-77
2023/06/13 06:41:49;;;;;;;;;;;19.60;99.90;;;;;;4969167;28;19941;-76
2023/06/13 06:44:15;;;;;;;;;;;19.60;99.90;;;;;;4968523;28;20011;-79
2023/06/13 06:46:40;;;;;;;;;;;19.70;99.90;;;;;;4992869;28;20000;-77
2023/06/13 06:49:07;;;;;;;;;;;19.80;99.90;;;;;;4989848;28;19918;-76
2023/06/13 06:51:33;;;;;;;;;;;19.90;99.90;;;;;;4985477;28;19917;-77
2023/06/13 06:53:59;;;;;;;;;;;20.00;99.90;;;;;;4990882;28;19921;-78
2023/06/13 06:56:25;;;;;;;;;;;20.10;99.90;;;;;;4970282;28;19921;-78
2023/06/13 06:58:51;;;;;;;;;;;20.20;99.90;;;;;;4973219;28;20021;-76
2023/06/13 07:01:18;;;;;;;;;;;20.30;99.90;;;;;;4990773;28;20450;-76
2023/06/13 07:03:44;;;;;;;;;;;20.40;99.90;;;;;;4988358;28;19925;-79
2023/06/13 07:06:11;;;;;;;;;;;20.60;99.90;;;;;;4974661;28;19928;-77
2023/06/13 07:08:37;;;;;;;;;;;20.70;99.90;;;;;;4975755;28;19976;-77
2023/06/13 07:11:03;;;;;;;;;;;20.80;99.90;;;;;;4982638;28;19957;-78
2023/06/13 07:13:28;;;;;;;;;;;21.00;99.90;;;;;;4965469;28;20331;-77
2023/06/13 07:15:54;;;;;;;;;;;21.10;99.90;;;;;;4971873;28;19926;-78
2023/06/13 07:18:19;;;;;;;;;;;21.10;99.90;;;;;;4972848;28;19917;-76
2023/06/13 07:20:45;;;;;;;;;;;21.30;99.90;;;;;;4974526;28;19940;-75
2023/06/13 07:23:12;;;;;;;;;;;21.40;99.90;;;;;;5025308;28;20024;-75
2023/06/13 07:25:40;;;;;;;;;;;21.40;99.90;;;;;;4992886;28;20353;-78
2023/06/13 07:28:07;;;;;;;;;;;21.60;99.90;;;;;;4970574;28;20012;-78
2023/06/13 07:30:32;;;;;;;;;;;21.70;99.90;;;;;;4975579;28;19929;-78
2023/06/13 07:32:58;;;;;;;;;;;21.80;99.90;;;;;;4996185;28;19917;-78
2023/06/13 07:35:23;;;;;;;;;;;21.90;99.90;;;;;;4991595;28;19917;-78
2023/06/13 07:37:50;;;;;;;;;;;22.00;99.90;;;;;;4979354;28;19935;-78
2023/06/13 07:40:16;;;;;;;;;;;22.20;99.90;;;;;;4974751;28;19921;-78
2023/06/13 07:42:42;;;;;;;;;;;22.30;99.90;;;;;;4993439;28;19928;-78
2023/06/13 07:45:07;;;;;;;;;;;22.30;99.90;;;;;;5022368;28;19922;-76
2023/06/13 07:47:34;;;;;;;;;;;22.40;99.90;;;;;;5002529;28;20363;-78
2023/06/13 07:49:59;;;;;;;;;;;22.50;99.90;;;;;;4992668;28;19918;-77
2023/06/13 07:52:25;;;;;;;;;;;22.60;99.90;;;;;;4992803;28;19928;-78
2023/06/13 07:54:51;;;;;;;;;;;22.70;99.90;;;;;;4994922;28;19921;-77
2023/06/13 07:57:16;;;;;;;;;;;22.70;99.90;;;;;;4995652;28;20019;-78
2023/06/13 07:59:42;;;;;;;;;;;22.90;99.90;;;;;;4977533;28;20359;-79
2023/06/13 08:02:08;;;;;;;;;;;23.00;99.90;;;;;;4977379;28;20306;-79
2023/06/13 08:04:33;;;;;;;;;;;23.10;99.90;;;;;;5010860;28;19922;-78
2023/06/13 08:06:59;;;;;;;;;;;23.20;99.90;;;;;;4994380;28;20435;-78
2023/06/13 08:09:24;;;;;;;;;;;23.20;99.90;;;;;;4993646;28;20272;-74
2023/06/13 08:11:50;;;;;;;;;;;23.30;99.90;;;;;;4978476;28;20365;-75
2023/06/13 08:14:16;;;;;;;;;;;23.50;99.90;;;;;;5022157;28;20294;-74
2023/06/13 08:16:42;;;;;;;;;;;23.70;99.90;;;;;;4977571;28;19925;-74
2023/06/13 08:19:08;;;;;;;;;;;23.80;99.90;;;;;;4994468;28;19921;-74
2023/06/13 08:21:33;;;;;;;;;;;24.00;99.90;;;;;;4962165;28;20290;-72
2023/06/13 08:23:59;;;;;;;;;;;24.00;99.90;;;;;;5027303;28;19925;-74
2023/06/13 08:26:25;;;;;;;;;;;24.20;99.90;;;;;;4971039;28;19925;-74
2023/06/13 08:28:51;;;;;;;;;;;24.30;99.90;;;;;;4976488;28;20378;-74
2023/06/13 08:31:23;;;;;;;;;;;24.40;99.90;;;;;;4994401;28;19984;-74
2023/06/13 08:33:52;;;;;;;;;;;24.60;99.90;;;;;;4979320;28;19996;-75
2023/06/13 08:36:18;;;;;;;;;;;24.60;99.90;;;;;;4994892;28;19999;-74
2023/06/13 08:38:43;;;;;;;;;;;24.80;99.90;;;;;;4991845;28;20386;-74
2023/06/13 08:41:10;;;;;;;;;;;25.10;99.90;;;;;;5009194;28;19940;-74
2023/06/13 08:43:36;;;;;;;;;;;25.30;99.90;;;;;;4993899;28;20004;-74
2023/06/13 08:46:02;;;;;;;;;;;25.40;99.90;;;;;;4991286;28;19924;-73
2023/06/13 08:48:32;;;;;;;;;;;25.40;99.90;;;;;;4978559;28;19917;-74
2023/06/13 08:51:03;;;;;;;;;;;25.60;99.90;;;;;;4979912;28;19933;-74
2023/06/13 08:53:31;;;;;;;;;;;25.70;99.90;;;;;;4978877;28;19929;-74
2023/06/13 08:55:59;;;;;;;;;;;25.80;99.90;;;;;;5024839;28;19953;-75
2023/06/13 08:58:27;;;;;;;;;;;25.90;99.90;;;;;;4992836;28;19928;-75
2023/06/13 09:00:53;;;;;;;;;;;25.90;99.90;;;;;;4976948;28;19921;-75
2023/06/13 09:03:22;;;;;;;;;;;26.00;99.90;;;;;;4989805;28;19926;-75
2023/06/13 09:05:47;;;;;;;;;;;26.00;99.90;;;;;;4992268;28;19961;-74
2023/06/13 09:08:14;;;;;;;;;;;26.00;99.90;;;;;;4995331;28;19964;-75
2023/06/13 09:10:40;;;;;;;;;;;26.00;99.90;;;;;;4993059;28;20011;-75
2023/06/13 09:13:07;;;;;;;;;;;26.00;99.90;;;;;;5027104;28;19960;-75
2023/06/13 09:15:33;;;;;;;;;;;26.10;99.90;;;;;;4975693;28;19921;-74
2023/06/13 09:17:59;;;;;;;;;;;26.20;99.90;;;;;;4992195;28;19922;-78
2023/06/13 09:20:27;;;;;;;;;;;26.30;99.90;;;;;;4992308;28;20282;-79
2023/06/13 09:22:52;;;;;;;;;;;26.60;99.90;;;;;;4978426;28;19944;-78
2023/06/13 09:25:21;;;;;;;;;;;26.50;99.90;;;;;;4962697;28;20367;-77
2023/06/13 09:27:46;;;;;;;;;;;26.50;99.90;;;;;;4995348;28;20419;-78
2023/06/13 09:30:14;;;;;;;;;;;26.50;99.90;;;;;;4995538;28;19985;-77
2023/06/13 09:32:43;;;;;;;;;;;26.50;99.90;;;;;;4995106;28;20375;-78
2023/06/13 09:35:08;;;;;;;;;;;26.60;99.90;;;;;;4995183;28;19936;-77
2023/06/13 09:37:34;;;;;;;;;;;26.50;99.90;;;;;;4995301;28;19921;-78
2023/06/13 09:40:01;;;;;;;;;;;26.80;99.90;;;;;;4985046;28;19928;-77
2023/06/13 09:42:30;;;;;;;;;;;26.90;99.90;;;;;;4976118;28;19918;-77
2023/06/13 09:44:56;;;;;;;;;;;27.10;99.90;;;;;;4959488;28;20251;-77
2023/06/13 09:47:23;;;;;;;;;;;27.30;99.90;;;;;;4976134;28;19995;-77
2023/06/13 09:49:55;;;;;;;;;;;27.40;99.90;;;;;;4959330;28;19924;-78
2023/06/13 09:52:25;;;;;;;;;;;27.30;99.90;;;;;;4975492;28;19972;-78
2023/06/13 09:54:51;;;;;;;;;;;27.10;99.90;;;;;;4985250;28;19921;-78
2023/06/13 09:57:17;;;;;;;;;;;27.00;99.90;;;;;;4978297;28;19923;-77
2023/06/13 09:59:45;;;;;;;;;;;27.10;99.90;;;;;;4995055;28;19921;-77
2023/06/13 10:02:11;;;;;;;;;;;27.20;99.90;;;;;;4994807;28;19921;-77
2023/06/13 10:04:36;;;;;;;;;;;27.10;99.90;;;;;;4994795;28;19925;-77
2023/06/13 10:07:02;;;;;;;;;;;27.20;99.90;;;;;;4978184;28;19917;-77
2023/06/13 10:09:28;;;;;;;;;;;27.30;99.90;;;;;;4960303;28;19922;-77
2023/06/13 10:11:54;;;;;;;;;;;27.40;99.90;;;;;;4958991;28;20394;-77
2023/06/13 10:14:22;;;;;;;;;;;27.50;99.90;;;;;;4975997;28;20012;-77
2023/06/13 10:16:51;;;;;;;;;;;27.70;99.90;;;;;;4975081;28;19926;-77
2023/06/13 10:19:20;;;;;;;;;;;27.60;99.90;;;;;;4974754;28;19968;-78
2023/06/13 10:21:46;;;;;;;;;;;27.70;99.90;;;;;;4974627;28;19925;-77
2023/06/13 10:24:13;;;;;;;;;;;27.60;99.90;;;;;;4974762;28;20295;-76
2023/06/13 10:26:45;;;;;;;;;;;27.60;99.90;;;;;;4975041;28;19918;-78
2023/06/13 10:29:10;;;;;;;;;;;27.70;99.90;;;;;;4960207;28;20351;-77
2023/06/13 10:31:48;;;;;;;;;;;27.80;99.90;;;;;;4955861;28;19929;-77
2023/06/13 10:34:30;;;;;;;;;;;27.90;99.90;;;;;;4939732;28;19944;-78
2023/06/13 10:37:08;;;;;;;;;;;28.00;99.90;;;;;;4956797;28;19921;-78
2023/06/13 10:39:45;;;;;;;;;;;28.00;99.90;;;;;;4955555;28;19921;-78
2023/06/13 10:42:11;;;;;;;;;;;28.10;99.90;;;;;;4964682;28;19928;-78
2023/06/13 10:44:49;;;;;;;;;;;27.90;99.90;;;;;;4974383;28;19972;-78
2023/06/13 10:47:16;;;;;;;;;;;28.20;99.90;;;;;;4974403;28;19924;-79
2023/06/13 10:49:42;;;;;;;;;;;28.20;99.90;;;;;;4974804;28;20327;-79
2023/06/13 10:52:12;;;;;;;;;;;28.00;99.90;;;;;;4974647;28;20236;-80
2023/06/13 10:54:40;;;;;;;;;;;28.00;99.90;;;;;;4958471;28;20377;-79
2023/06/13 10:57:06;;;;;;;;;;;27.80;99.90;;;;;;4974307;28;19930;-79
2023/06/13 10:59:36;;;;;;;;;;;27.70;99.90;;;;;;4974471;28;19921;-79
2023/06/13 11:02:02;;;;;;;;;;;27.80;99.90;;;;;;4958592;28;19917;-79
2023/06/13 11:04:29;;;;;;;;;;;27.80;99.90;;;;;;4957831;28;20387;-79
2023/06/13 11:07:14;;;;;;;;;;;27.80;99.90;;;;;;4991788;28;20065;-79
2023/06/13 11:09:40;;;;;;;;;;;27.90;99.90;;;;;;4963804;28;20294;-79
2023/06/13 11:12:06;;;;;;;;;;;27.80;99.90;;;;;;4955010;28;19924;-78
2023/06/13 11:14:36;;;;;;;;;;;27.90;99.90;;;;;;4954941;28;19930;-79
2023/06/13 11:17:02;;;;;;;;;;;28.00;99.90;;;;;;4954846;28;19922;-78
2023/06/13 11:19:28;;;;;;;;;;;28.10;99.90;;;;;;4973708;28;20029;-78
2023/06/13 11:22:01;;;;;;;;;;;28.10;99.90;;;;;;4973965;28;20032;-79
2023/06/13 11:24:27;;;;;;;;;;;28.40;99.90;;;;;;4974182;28;20008;-79
2023/06/13 11:26:55;;;;;;;;;;;28.10;99.90;;;;;;4959174;28;20532;-78
2023/06/13 11:29:20;;;;;;;;;;;28.00;99.90;;;;;;4999018;28;19929;-79
2023/06/13 11:31:50;;;;;;;;;;;28.00;99.90;;;;;;4998935;28;19980;-78
2023/06/13 11:34:17;;;;;;;;;;;28.00;99.90;;;;;;4995958;28;19921;-79
2023/06/13 11:36:43;;;;;;;;;;;28.00;99.90;;;;;;4990827;28;19918;-79
2023/06/13 11:39:30;;;;;;;;;;;28.10;99.90;;;;;;5006779;28;20351;-79
2023/06/13 11:41:57;;;;;;;;;;;28.30;99.90;;;;;;4990185;28;19925;-78
2023/06/13 11:44:22;;;;;;;;;;;28.40;99.90;;;;;;4974102;28;19929;-80
2023/06/13 11:46:48;;;;;;;;;;;28.30;99.90;;;;;;5006285;28;20390;-79
2023/06/13 11:49:14;;;;;;;;;;;28.50;99.90;;;;;;4968410;28;19971;-79
2023/06/13 11:51:41;;;;;;;;;;;28.50;99.90;;;;;;4977359;28;19921;-80
2023/06/13 11:54:08;;;;;;;;;;;28.50;99.90;;;;;;4977373;28;19987;-79
2023/06/13 11:56:36;;;;;;;;;;;28.20;99.90;;;;;;4977216;28;19917;-80
2023/06/13 11:59:16;;;;;;;;;;;28.20;99.90;;;;;;4993067;28;19917;-79
2023/06/13 12:01:42;;;;;;;;;;;27.80;99.90;;;;;;4975277;28;19918;-79
2023/06/13 12:04:10;;;;;;;;;;;27.90;99.90;;;;;;4993015;28;19963;-79
2023/06/13 12:06:38;;;;;;;;;;;27.80;99.90;;;;;;4993570;28;19924;-79
2023/06/13 12:09:04;;;;;;;;;;;27.80;99.90;;;;;;4977176;28;20478;-79
2023/06/13 12:11:31;;;;;;;;;;;27.60;99.90;;;;;;4989008;28;19921;-80
2023/06/13 12:13:57;;;;;;;;;;;27.60;99.90;;;;;;4992119;28;20366;-79
2023/06/13 12:16:29;;;;;;;;;;;27.60;99.90;;;;;;4993546;28;19921;-79
2023/06/13 12:18:55;;;;;;;;;;;27.60;99.90;;;;;;4980094;28;19945;-79
2023/06/13 12:21:29;;;;;;;;;;;27.90;99.90;;;;;;4980203;28;19921;-79
2023/06/13 12:24:02;;;;;;;;;;;28.00;99.90;;;;;;4996384;28;19948;-78
2023/06/13 12:26:30;;;;;;;;;;;28.10;99.90;;;;;;4996715;28;20290;-78
2023/06/13 12:28:59;;;;;;;;;;;28.30;99.90;;;;;;4996356;28;20012;-78
2023/06/13 12:31:29;;;;;;;;;;;28.30;99.90;;;;;;4996535;28;19922;-78
2023/06/13 12:34:26;;;;;;;;;;;28.30;99.90;;;;;;4996406;28;19933;-78
2023/06/13 12:36:56;;;;;;;;;;;28.20;99.90;;;;;;4979492;28;19924;-78
2023/06/13 12:39:22;;;;;;;;;;;28.10;99.90;;;;;;5029665;28;19921;-79
2023/06/13 12:41:49;;;;;;;;;;;28.30;99.90;;;;;;4996754;28;19917;-79
2023/06/13 12:44:15;;;;;;;;;;;28.50;99.90;;;;;;5029435;28;19975;-79
2023/06/13 12:46:41;;;;;;;;;;;28.30;99.90;;;;;;4997640;28;20346;-79
2023/06/13 12:49:11;;;;;;;;;;;28.40;99.90;;;;;;4996045;28;19918;-79
2023/06/13 12:51:54;;;;;;;;;;;28.40;99.90;;;;;;4979681;28;19967;-79
2023/06/13 12:54:23;;;;;;;;;;;28.30;99.90;;;;;;4996645;28;19917;-78
2023/06/13 12:56:52;;;;;;;;;;;28.30;99.90;;;;;;4996989;28;20380;-78
2023/06/13 12:59:17;;;;;;;;;;;28.20;99.90;;;;;;4996359;28;19921;-78
2023/06/13 13:01:43;;;;;;;;;;;28.10;99.90;;;;;;4980122;28;19917;-79
2023/06/13 13:04:09;;;;;;;;;;;28.10;99.90;;;;;;5006380;28;19909;-78
2023/06/13 13:06:35;;;;;;;;;;;28.20;99.90;;;;;;4992634;28;19943;-78
2023/06/13 13:09:00;;;;;;;;;;;28.20;99.90;;;;;;4995594;28;19921;-79
2023/06/13 13:11:28;;;;;;;;;;;28.20;99.90;;;;;;4980020;28;19928;-78
2023/06/13 13:13:54;;;;;;;;;;;28.30;99.90;;;;;;4995543;28;19921;-78
2023/06/13 13:16:21;;;;;;;;;;;28.50;99.90;;;;;;4979166;28;19991;-78
2023/06/13 13:18:47;;;;;;;;;;;28.40;99.90;;;;;;4979261;28;19928;-78
2023/06/13 13:21:12;;;;;;;;;;;28.10;99.90;;;;;;4995502;28;20019;-79
2023/06/13 13:23:38;;;;;;;;;;;28.00;99.90;;;;;;4978259;28;19941;-79
2023/06/13 13:26:03;;;;;;;;;;;27.90;99.90;;;;;;4979230;28;19925;-79
2023/06/13 13:28:29;;;;;;;;;;;28.20;99.90;;;;;;4978723;28;19925;-79
2023/06/13 13:30:55;;;;;;;;;;;28.20;99.90;;;;;;4995066;28;19921;-79
2023/06/13 13:33:24;;;;;;;;;;;28.40;99.90;;;;;;4995084;28;19922;-79
2023/06/13 13:35:51;;;;;;;;;;;28.50;99.90;;;;;;4979753;28;19992;-79
2023/06/13 13:38:16;;;;;;;;;;;28.40;99.90;;;;;;4995176;28;19917;-79
2023/06/13 13:40:42;;;;;;;;;;;28.10;99.90;;;;;;4995270;28;20031;-79
2023/06/13 13:43:09;;;;;;;;;;;28.00;99.90;;;;;;4962525;28;20346;-78
2023/06/13 13:45:34;;;;;;;;;;;28.00;99.90;;;;;;4994997;28;20023;-79
2023/06/13 13:48:00;;;;;;;;;;;28.10;99.90;;;;;;4995639;28;20364;-78
2023/06/13 13:50:26;;;;;;;;;;;28.00;99.90;;;;;;4995249;28;20275;-78
2023/06/13 13:52:52;;;;;;;;;;;27.90;99.90;;;;;;5012220;28;19980;-79
2023/06/13 13:55:17;;;;;;;;;;;28.00;99.90;;;;;;4978548;28;20008;-79
2023/06/13 13:57:43;;;;;;;;;;;28.20;99.90;;;;;;4962697;28;20012;-79
2023/06/13 14:00:09;;;;;;;;;;;28.50;99.90;;;;;;4994834;28;19991;-78
2023/06/13 14:02:35;;;;;;;;;;;28.60;99.90;;;;;;4995443;28;20477;-79
2023/06/13 14:05:00;;;;;;;;;;;28.50;99.90;;;;;;4995288;28;19932;-79
2023/06/13 14:07:26;;;;;;;;;;;28.60;99.90;;;;;;4996304;28;19918;-79
2023/06/13 14:09:51;;;;;;;;;;;28.60;99.90;;;;;;4979132;28;20286;-79
2023/06/13 14:12:17;;;;;;;;;;;28.50;99.90;;;;;;4994692;28;20392;-79
2023/06/13 14:14:43;;;;;;;;;;;28.50;99.90;;;;;;4994636;28;19921;-79
2023/06/13 14:17:08;;;;;;;;;;;28.50;99.90;;;;;;5027524;28;19928;-79